Terminal Aerodrome Forecast
Issued by NWS Tampa Bay Area, FL

Home | Current Version | Previous Version | Text Only | Print | Product List | Glossary On
Versions: 1 2 3 4 5 6 7 8 9 10 11 12 13 14 15 16 17 18 19 20 21 22 23 24 25 26 27 28
492
FTUS42 KTBW 041744
TAFTPA
TAF
KTPA 041744Z 0418/0518 22006KT 6SM -RA SCT010 BKN025 OVC100
      TEMPO 0418/0420 BKN010
     FM042000 26009KT P6SM VCSH SCT010 BKN025 OVC100
     FM050000 30010KT P6SM SCT025 BKN060
     FM050600 30010KT P6SM FEW025 SCT060
     FM051400 30012KT P6SM SCT060=

USA.gov is the U.S. government's official web portal to all federal, state and local government web resources and services.